Time,TemperatureF,DewpointF,PressureIn,WindDirection,WindDirectionDegrees,WindSpeedMPH,WindSpeedGustMPH,Humidity,HourlyPrecipIn,Conditions,Clouds,dailyrainin,SoftwareType,DateUTC
2013-01-28 00:00:00,34.7,33.4,29.50,East,90,2.0,8.0,95,0.00,,,0.00,WeatherCatV1.02B3,2013-01-28 05:00:00,
2013-01-28 00:05:00,34.7,33.4,29.50,East,90,2.0,8.0,95,0.00,,,0.00,WeatherCatV1.02B3,2013-01-28 05:05:00,
2013-01-28 00:10:00,34.7,33.4,29.50,East,90,2.0,8.0,95,0.00,,,0.00,WeatherCatV1.02B3,2013-01-28 05:10:00,
2013-01-28 00:15:00,34.7,33.4,29.50,East,90,2.0,8.0,95,0.00,,,0.00,WeatherCatV1.02B3,2013-01-28 05:15:00,
2013-01-28 00:20:00,34.7,33.4,29.50,East,90,2.0,8.0,95,0.00,,,0.00,WeatherCatV1.02B3,2013-01-28 05:20:00,
2013-01-28 00:25:00,34.7,33.4,29.50,East,90,2.0,8.0,95,0.00,,,0.00,WeatherCatV1.02B3,2013-01-28 05:25:00,
2013-01-28 00:30:00,34.7,33.4,29.50,East,90,2.0,8.0,95,0.00,,,0.00,WeatherCatV1.02B3,2013-01-28 05:30:00,
2013-01-28 00:35:00,34.8,33.5,29.48,ESE,112,1.0,7.0,95,0.05,,,0.00,WeatherCatV1.02B3,2013-01-28 05:35:00,
2013-01-28 00:40:00,34.8,33.5,29.48,ESE,112,1.0,7.0,95,0.05,,,0.00,WeatherCatV1.02B3,2013-01-28 05:40:00,
2013-01-28 00:45:00,34.8,33.5,29.48,ESE,112,1.0,7.0,95,0.05,,,0.00,WeatherCatV1.02B3,2013-01-28 05:45:00,
2013-01-28 00:50:00,34.8,33.5,29.48,ESE,112,1.0,7.0,95,0.05,,,0.00,WeatherCatV1.02B3,2013-01-28 05:50:00,
2013-01-28 00:55:00,34.8,33.5,29.48,ESE,112,1.0,7.0,95,0.05,,,0.00,WeatherCatV1.02B3,2013-01-28 05:55:00,
2013-01-28 01:00:00,34.8,33.5,29.48,ESE,112,1.0,7.0,95,0.05,,,0.00,WeatherCatV1.02B3,2013-01-28 06:00:00,
2013-01-28 01:05:00,35.0,34.0,29.47,ESE,112,2.0,8.0,96,0.04,,,0.00,WeatherCatV1.02B3,2013-01-28 06:05:00,
2013-01-28 01:10:00,35.0,34.0,29.47,ESE,112,2.0,8.0,96,0.04,,,0.00,WeatherCatV1.02B3,2013-01-28 06:10:00,
2013-01-28 01:15:00,35.0,34.0,29.47,ESE,112,2.0,8.0,96,0.04,,,0.00,WeatherCatV1.02B3,2013-01-28 06:15:00,
2013-01-28 01:20:00,35.0,34.0,29.47,ESE,112,2.0,8.0,96,0.04,,,0.00,WeatherCatV1.02B3,2013-01-28 06:20:00,
2013-01-28 01:25:00,35.0,34.0,29.47,ESE,112,2.0,8.0,96,0.04,,,0.00,WeatherCatV1.02B3,2013-01-28 06:25:00,
2013-01-28 01:30:00,35.0,34.0,29.47,ESE,112,2.0,8.0,96,0.04,,,0.00,WeatherCatV1.02B3,2013-01-28 06:30:00,
2013-01-28 01:35:00,35.5,34.7,29.45,SW,225,2.0,9.0,97,0.00,,,0.00,WeatherCatV1.02B3,2013-01-28 06:35:00,
2013-01-28 01:40:00,35.5,34.7,29.45,SW,225,2.0,9.0,97,0.00,,,0.00,WeatherCatV1.02B3,2013-01-28 06:40:00,
2013-01-28 01:45:00,35.5,34.7,29.45,SW,225,2.0,9.0,97,0.00,,,0.00,WeatherCatV1.02B3,2013-01-28 06:45:00,
2013-01-28 01:50:00,35.5,34.7,29.45,SW,225,2.0,9.0,97,0.00,,,0.00,WeatherCatV1.02B3,2013-01-28 06:50:00,
2013-01-28 01:55:00,35.5,34.7,29.45,SW,225,2.0,9.0,97,0.00,,,0.00,WeatherCatV1.02B3,2013-01-28 06:55:00,
2013-01-28 02:00:00,35.5,34.7,29.45,SW,225,2.0,9.0,97,0.00,,,0.00,WeatherCatV1.02B3,2013-01-28 07:00:00,
2013-01-28 02:05:00,36.1,35.3,29.44,SW,225,2.0,9.0,97,0.04,,,0.00,WeatherCatV1.02B3,2013-01-28 07:05:00,
2013-01-28 02:10:00,36.1,35.3,29.44,SW,225,2.0,9.0,97,0.04,,,0.00,WeatherCatV1.02B3,2013-01-28 07:10:00,
2013-01-28 02:15:00,36.1,35.3,29.44,SW,225,2.0,9.0,97,0.04,,,0.00,WeatherCatV1.02B3,2013-01-28 07:15:00,
2013-01-28 02:20:00,36.1,35.3,29.44,SW,225,2.0,9.0,97,0.04,,,0.00,WeatherCatV1.02B3,2013-01-28 07:20:00,
2013-01-28 02:25:00,36.1,35.3,29.44,SW,225,2.0,9.0,97,0.04,,,0.00,WeatherCatV1.02B3,2013-01-28 07:25:00,
2013-01-28 02:30:00,37.2,36.7,29.43,SW,225,2.0,16.0,98,0.06,,,0.00,WeatherCatV1.02B3,2013-01-28 07:30:00,
2013-01-28 02:35:00,37.2,36.7,29.43,SW,225,2.0,16.0,98,0.06,,,0.00,WeatherCatV1.02B3,2013-01-28 07:35:00,
2013-01-28 02:40:00,37.2,36.7,29.43,SW,225,2.0,16.0,98,0.06,,,0.00,WeatherCatV1.02B3,2013-01-28 07:40:00,
2013-01-28 02:45:00,37.2,36.7,29.43,SW,225,2.0,16.0,98,0.06,,,0.00,WeatherCatV1.02B3,2013-01-28 07:45:00,
2013-01-28 02:50:00,37.2,36.7,29.43,SW,225,2.0,16.0,98,0.06,,,0.00,WeatherCatV1.02B3,2013-01-28 07:50:00,
2013-01-28 02:55:00,37.2,36.7,29.43,SW,225,2.0,16.0,98,0.06,,,0.00,WeatherCatV1.02B3,2013-01-28 07:55:00,
2013-01-28 03:00:00,38.5,38.0,29.42,SW,225,3.0,11.0,98,0.08,,,0.00,WeatherCatV1.02B3,2013-01-28 08:00:00,
2013-01-28 03:05:00,38.5,38.0,29.42,SW,225,3.0,11.0,98,0.08,,,0.00,WeatherCatV1.02B3,2013-01-28 08:05:00,
2013-01-28 03:10:00,38.5,38.0,29.42,SW,225,3.0,11.0,98,0.08,,,0.00,WeatherCatV1.02B3,2013-01-28 08:10:00,
2013-01-28 03:15:00,38.5,38.0,29.42,SW,225,3.0,11.0,98,0.08,,,0.00,WeatherCatV1.02B3,2013-01-28 08:15:00,
2013-01-28 03:20:00,38.5,38.0,29.42,SW,225,3.0,11.0,98,0.08,,,0.00,WeatherCatV1.02B3,2013-01-28 08:20:00,
2013-01-28 03:25:00,38.5,38.0,29.42,SW,225,3.0,11.0,98,0.08,,,0.00,WeatherCatV1.02B3,2013-01-28 08:25:00,
2013-01-28 03:30:00,38.5,38.0,29.42,SW,225,3.0,11.0,98,0.08,,,0.00,WeatherCatV1.02B3,2013-01-28 08:30:00,
2013-01-28 03:35:00,39.2,38.4,29.41,SW,225,4.0,13.0,97,0.10,,,0.00,WeatherCatV1.02B3,2013-01-28 08:35:00,
2013-01-28 03:40:00,39.2,38.4,29.41,SW,225,4.0,13.0,97,0.10,,,0.00,WeatherCatV1.02B3,2013-01-28 08:40:00,
2013-01-28 03:45:00,39.2,38.4,29.41,SW,225,4.0,13.0,97,0.10,,,0.00,WeatherCatV1.02B3,2013-01-28 08:45:00,
2013-01-28 03:50:00,39.2,38.4,29.41,SW,225,4.0,13.0,97,0.10,,,0.00,WeatherCatV1.02B3,2013-01-28 08:50:00,
2013-01-28 03:55:00,39.2,38.4,29.41,SW,225,4.0,13.0,97,0.10,,,0.00,WeatherCatV1.02B3,2013-01-28 08:55:00,
2013-01-28 04:00:00,39.2,38.4,29.41,SW,225,4.0,13.0,97,0.10,,,0.00,WeatherCatV1.02B3,2013-01-28 09:00:00,
2013-01-28 04:05:00,39.7,38.9,29.40,SW,225,4.0,13.0,97,0.11,,,0.00,WeatherCatV1.02B3,2013-01-28 09:05:00,
2013-01-28 04:10:00,39.7,38.9,29.40,SW,225,4.0,13.0,97,0.11,,,0.00,WeatherCatV1.02B3,2013-01-28 09:10:00,
2013-01-28 04:15:00,39.7,38.9,29.40,SW,225,4.0,13.0,97,0.11,,,0.00,WeatherCatV1.02B3,2013-01-28 09:15:00,
2013-01-28 04:20:00,39.7,38.9,29.40,SW,225,4.0,13.0,97,0.11,,,0.00,WeatherCatV1.02B3,2013-01-28 09:20:00,
2013-01-28 04:25:00,39.7,38.9,29.40,SW,225,4.0,13.0,97,0.11,,,0.00,WeatherCatV1.02B3,2013-01-28 09:25:00,
2013-01-28 04:30:00,39.7,38.9,29.40,SW,225,4.0,13.0,97,0.11,,,0.00,WeatherCatV1.02B3,2013-01-28 09:30:00,
2013-01-28 04:35:00,40.0,39.2,29.39,SW,225,4.0,12.0,97,0.11,,,0.00,WeatherCatV1.02B3,2013-01-28 09:35:00,
2013-01-28 04:40:00,40.0,39.2,29.39,SW,225,4.0,12.0,97,0.11,,,0.00,WeatherCatV1.02B3,2013-01-28 09:40:00,
2013-01-28 04:45:00,40.0,39.2,29.39,SW,225,4.0,12.0,97,0.11,,,0.00,WeatherCatV1.02B3,2013-01-28 09:45:00,
2013-01-28 04:50:00,40.0,39.2,29.39,SW,225,4.0,12.0,97,0.11,,,0.00,WeatherCatV1.02B3,2013-01-28 09:50:00,
2013-01-28 04:55:00,40.0,39.2,29.39,SW,225,4.0,12.0,97,0.11,,,0.00,WeatherCatV1.02B3,2013-01-28 09:55:00,
2013-01-28 05:00:00,40.0,39.2,29.39,SW,225,4.0,12.0,97,0.11,,,0.00,WeatherCatV1.02B3,2013-01-28 10:00:00,
2013-01-28 05:05:00,41.3,40.8,29.38,SW,225,4.0,15.0,98,0.07,,,0.00,WeatherCatV1.02B3,2013-01-28 10:05:00,
2013-01-28 05:10:00,41.3,40.8,29.38,SW,225,4.0,15.0,98,0.07,,,0.00,WeatherCatV1.02B3,2013-01-28 10:10:00,
2013-01-28 05:15:00,41.3,40.8,29.38,SW,225,4.0,15.0,98,0.07,,,0.00,WeatherCatV1.02B3,2013-01-28 10:15:00,
2013-01-28 05:20:00,41.3,40.8,29.38,SW,225,4.0,15.0,98,0.07,,,0.00,WeatherCatV1.02B3,2013-01-28 10:20:00,
2013-01-28 05:25:00,41.3,40.8,29.38,SW,225,4.0,15.0,98,0.07,,,0.00,WeatherCatV1.02B3,2013-01-28 10:25:00,
2013-01-28 05:30:00,41.3,40.8,29.38,SW,225,4.0,15.0,98,0.07,,,0.00,WeatherCatV1.02B3,2013-01-28 10:30:00,
2013-01-28 05:35:00,42.2,41.7,29.38,SW,225,3.0,10.0,98,0.04,,,0.00,WeatherCatV1.02B3,2013-01-28 10:35:00,
2013-01-28 05:40:00,42.2,41.7,29.38,SW,225,3.0,10.0,98,0.04,,,0.00,WeatherCatV1.02B3,2013-01-28 10:40:00,
2013-01-28 05:45:00,42.2,41.7,29.38,SW,225,3.0,10.0,98,0.04,,,0.00,WeatherCatV1.02B3,2013-01-28 10:45:00,
2013-01-28 05:50:00,42.2,41.7,29.38,SW,225,3.0,10.0,98,0.04,,,0.00,WeatherCatV1.02B3,2013-01-28 10:50:00,
2013-01-28 05:55:00,42.2,41.7,29.38,SW,225,3.0,10.0,98,0.04,,,0.00,WeatherCatV1.02B3,2013-01-28 10:55:00,
2013-01-28 06:00:00,42.6,42.1,29.37,SW,225,3.0,11.0,98,0.00,,,0.00,WeatherCatV1.02B3,2013-01-28 11:00:00,
2013-01-28 06:05:00,42.6,42.1,29.37,SW,225,3.0,11.0,98,0.00,,,0.00,WeatherCatV1.02B3,2013-01-28 11:05:00,
2013-01-28 06:10:00,42.6,42.1,29.37,SW,225,3.0,11.0,98,0.00,,,0.00,WeatherCatV1.02B3,2013-01-28 11:10:00,
2013-01-28 06:15:00,42.6,42.1,29.37,SW,225,3.0,11.0,98,0.00,,,0.00,WeatherCatV1.02B3,2013-01-28 11:15:00,
2013-01-28 06:20:00,42.6,42.1,29.37,SW,225,3.0,11.0,98,0.00,,,0.00,WeatherCatV1.02B3,2013-01-28 11:20:00,
2013-01-28 06:25:00,42.6,42.1,29.37,SW,225,3.0,11.0,98,0.00,,,0.00,WeatherCatV1.02B3,2013-01-28 11:25:00,
2013-01-28 06:30:00,43.3,42.8,29.35,SW,225,3.0,11.0,98,0.00,,,0.00,WeatherCatV1.02B3,2013-01-28 11:30:00,
2013-01-28 06:35:00,43.3,42.8,29.35,SW,225,3.0,11.0,98,0.00,,,0.00,WeatherCatV1.02B3,2013-01-28 11:35:00,
2013-01-28 06:40:00,43.3,42.8,29.35,SW,225,3.0,11.0,98,0.00,,,0.00,WeatherCatV1.02B3,2013-01-28 11:40:00,
2013-01-28 06:45:00,43.3,42.8,29.35,SW,225,3.0,11.0,98,0.00,,,0.00,WeatherCatV1.02B3,2013-01-28 11:45:00,
2013-01-28 06:50:00,43.3,42.8,29.35,SW,225,3.0,11.0,98,0.00,,,0.00,WeatherCatV1.02B3,2013-01-28 11:50:00,
2013-01-28 06:55:00,43.3,42.8,29.35,SW,225,3.0,11.0,98,0.00,,,0.00,WeatherCatV1.02B3,2013-01-28 11:55:00,
2013-01-28 07:00:00,43.3,42.8,29.35,SW,225,3.0,11.0,98,0.00,,,0.00,WeatherCatV1.02B3,2013-01-28 12:00:00,
2013-01-28 07:05:00,44.0,43.5,29.35,WSW,248,3.0,11.0,98,0.05,,,0.00,WeatherCatV1.02B3,2013-01-28 12:05:00,
2013-01-28 07:10:00,44.0,43.5,29.35,WSW,248,3.0,11.0,98,0.05,,,0.00,WeatherCatV1.02B3,2013-01-28 12:10:00,
2013-01-28 07:15:00,44.0,43.5,29.35,WSW,248,3.0,11.0,98,0.05,,,0.00,WeatherCatV1.02B3,2013-01-28 12:15:00,
2013-01-28 07:20:00,44.0,43.5,29.35,WSW,248,3.0,11.0,98,0.05,,,0.00,WeatherCatV1.02B3,2013-01-28 12:20:00,
2013-01-28 07:25:00,44.0,43.5,29.35,WSW,248,3.0,11.0,98,0.05,,,0.00,WeatherCatV1.02B3,2013-01-28 12:25:00,
2013-01-28 07:30:00,44.0,43.5,29.35,WSW,248,3.0,11.0,98,0.05,,,0.00,WeatherCatV1.02B3,2013-01-28 12:30:00,
2013-01-28 07:35:00,44.5,44.0,29.35,SW,225,3.0,10.0,98,0.00,,,0.00,WeatherCatV1.02B3,2013-01-28 12:35:00,
2013-01-28 07:40:00,44.5,44.0,29.35,SW,225,3.0,10.0,98,0.00,,,0.00,WeatherCatV1.02B3,2013-01-28 12:40:00,
2013-01-28 07:45:00,44.5,44.0,29.35,SW,225,3.0,10.0,98,0.00,,,0.00,WeatherCatV1.02B3,2013-01-28 12:45:00,
2013-01-28 07:50:00,44.5,44.0,29.35,SW,225,3.0,10.0,98,0.00,,,0.00,WeatherCatV1.02B3,2013-01-28 12:50:00,
2013-01-28 07:55:00,44.5,44.0,29.35,SW,225,3.0,10.0,98,0.00,,,0.00,WeatherCatV1.02B3,2013-01-28 12:55:00,
2013-01-28 08:00:00,44.5,44.0,29.35,SW,225,3.0,10.0,98,0.00,,,0.00,WeatherCatV1.02B3,2013-01-28 13:00:00,
2013-01-28 08:05:00,45.1,44.6,29.36,WSW,248,4.0,13.0,98,0.00,,,0.00,WeatherCatV1.02B3,2013-01-28 13:05:00,
2013-01-28 08:10:00,45.1,44.6,29.36,WSW,248,4.0,13.0,98,0.00,,,0.00,WeatherCatV1.02B3,2013-01-28 13:10:00,
2013-01-28 08:15:00,45.1,44.6,29.36,WSW,248,4.0,13.0,98,0.00,,,0.00,WeatherCatV1.02B3,2013-01-28 13:15:00,
2013-01-28 08:20:00,45.1,44.6,29.36,WSW,248,4.0,13.0,98,0.00,,,0.00,WeatherCatV1.02B3,2013-01-28 13:20:00,
2013-01-28 08:25:00,45.1,44.6,29.36,WSW,248,4.0,13.0,98,0.00,,,0.00,WeatherCatV1.02B3,2013-01-28 13:25:00,
2013-01-28 08:30:00,45.1,44.6,29.36,WSW,248,4.0,13.0,98,0.00,,,0.00,WeatherCatV1.02B3,2013-01-28 13:30:00,
2013-01-28 08:35:00,45.5,45.0,29.36,WSW,248,3.0,12.0,98,0.00,,,0.00,WeatherCatV1.02B3,2013-01-28 13:35:00,
2013-01-28 08:40:00,45.5,45.0,29.36,WSW,248,3.0,12.0,98,0.00,,,0.00,WeatherCatV1.02B3,2013-01-28 13:40:00,
2013-01-28 08:45:00,45.5,45.0,29.36,WSW,248,3.0,12.0,98,0.00,,,0.00,WeatherCatV1.02B3,2013-01-28 13:45:00,
2013-01-28 08:50:00,45.5,45.0,29.36,WSW,248,3.0,12.0,98,0.00,,,0.00,WeatherCatV1.02B3,2013-01-28 13:50:00,
2013-01-28 08:55:00,45.5,45.0,29.36,WSW,248,3.0,12.0,98,0.00,,,0.00,WeatherCatV1.02B3,2013-01-28 13:55:00,
2013-01-28 09:00:00,45.5,45.0,29.36,WSW,248,3.0,12.0,98,0.00,,,0.00,WeatherCatV1.02B3,2013-01-28 14:00:00,
2013-01-28 09:05:00,45.5,45.0,29.38,SW,225,2.0,8.0,98,0.00,,,0.00,WeatherCatV1.02B3,2013-01-28 14:05:00,
2013-01-28 09:10:00,45.5,45.0,29.38,SW,225,2.0,8.0,98,0.00,,,0.00,WeatherCatV1.02B3,2013-01-28 14:10:00,
2013-01-28 09:15:00,45.5,45.0,29.38,SW,225,2.0,8.0,98,0.00,,,0.00,WeatherCatV1.02B3,2013-01-28 14:15:00,
2013-01-28 09:20:00,45.5,45.0,29.38,SW,225,2.0,8.0,98,0.00,,,0.00,WeatherCatV1.02B3,2013-01-28 14:20:00,
2013-01-28 09:25:00,45.5,45.0,29.38,SW,225,2.0,8.0,98,0.00,,,0.00,WeatherCatV1.02B3,2013-01-28 14:25:00,
2013-01-28 09:30:00,45.5,45.0,29.38,SW,225,2.0,8.0,98,0.00,,,0.00,WeatherCatV1.02B3,2013-01-28 14:30:00,
2013-01-28 09:35:00,45.8,45.3,29.38,SW,225,2.0,7.0,98,0.00,,,0.00,WeatherCatV1.02B3,2013-01-28 14:35:00,
2013-01-28 09:40:00,45.8,45.3,29.38,SW,225,2.0,7.0,98,0.00,,,0.00,WeatherCatV1.02B3,2013-01-28 14:40:00,
2013-01-28 09:45:00,45.8,45.3,29.38,SW,225,2.0,7.0,98,0.00,,,0.00,WeatherCatV1.02B3,2013-01-28 14:45:00,
2013-01-28 09:50:00,45.8,45.3,29.38,SW,225,2.0,7.0,98,0.00,,,0.00,WeatherCatV1.02B3,2013-01-28 14:50:00,
2013-01-28 09:55:00,45.8,45.3,29.38,SW,225,2.0,7.0,98,0.00,,,0.00,WeatherCatV1.02B3,2013-01-28 14:55:00,
2013-01-28 10:00:00,45.8,45.3,29.38,SW,225,2.0,7.0,98,0.00,,,0.00,WeatherCatV1.02B3,2013-01-28 15:00:00,
2013-01-28 10:05:00,46.3,46.0,29.39,SW,225,1.0,6.0,99,0.00,,,0.00,WeatherCatV1.02B3,2013-01-28 15:05:00,
2013-01-28 10:10:00,46.3,46.0,29.39,SW,225,1.0,6.0,99,0.00,,,0.00,WeatherCatV1.02B3,2013-01-28 15:10:00,
2013-01-28 10:15:00,46.3,46.0,29.39,SW,225,1.0,6.0,99,0.00,,,0.00,WeatherCatV1.02B3,2013-01-28 15:15:00,
2013-01-28 10:20:00,46.3,46.0,29.39,SW,225,1.0,6.0,99,0.00,,,0.00,WeatherCatV1.02B3,2013-01-28 15:20:00,
2013-01-28 10:25:00,46.3,46.0,29.39,SW,225,1.0,6.0,99,0.00,,,0.00,WeatherCatV1.02B3,2013-01-28 15:25:00,
2013-01-28 10:30:00,48.0,47.7,29.39,SW,225,2.0,7.0,99,0.00,,,0.00,WeatherCatV1.02B3,2013-01-28 15:30:00,
2013-01-28 10:35:00,48.0,47.7,29.39,SW,225,2.0,7.0,99,0.00,,,0.00,WeatherCatV1.02B3,2013-01-28 15:35:00,
2013-01-28 10:40:00,48.0,47.7,29.39,SW,225,2.0,7.0,99,0.00,,,0.00,WeatherCatV1.02B3,2013-01-28 15:40:00,
2013-01-28 10:45:00,48.0,47.7,29.39,SW,225,2.0,7.0,99,0.00,,,0.00,WeatherCatV1.02B3,2013-01-28 15:45:00,
2013-01-28 10:50:00,48.0,47.7,29.39,SW,225,2.0,7.0,99,0.00,,,0.00,WeatherCatV1.02B3,2013-01-28 15:50:00,
2013-01-28 10:55:00,48.0,47.7,29.39,SW,225,2.0,7.0,99,0.00,,,0.00,WeatherCatV1.02B3,2013-01-28 15:55:00,
2013-01-28 11:00:00,49.2,48.9,29.40,WSW,248,3.0,7.0,99,0.00,,,0.00,WeatherCatV1.02B3,2013-01-28 16:00:00,
2013-01-28 11:05:00,49.2,48.9,29.40,WSW,248,3.0,7.0,99,0.00,,,0.00,WeatherCatV1.02B3,2013-01-28 16:05:00,
2013-01-28 11:10:00,49.2,48.9,29.40,WSW,248,3.0,7.0,99,0.00,,,0.00,WeatherCatV1.02B3,2013-01-28 16:10:00,
2013-01-28 11:15:00,49.2,48.9,29.40,WSW,248,3.0,7.0,99,0.00,,,0.00,WeatherCatV1.02B3,2013-01-28 16:15:00,
2013-01-28 11:20:00,49.2,48.9,29.40,WSW,248,3.0,7.0,99,0.00,,,0.00,WeatherCatV1.02B3,2013-01-28 16:20:00,
2013-01-28 11:25:00,49.2,48.9,29.40,WSW,248,3.0,7.0,99,0.00,,,0.00,WeatherCatV1.02B3,2013-01-28 16:25:00,
2013-01-28 11:30:00,49.9,49.4,29.41,WSW,248,5.0,11.0,98,0.00,,,0.00,WeatherCatV1.02B3,2013-01-28 16:30:00,
2013-01-28 11:35:00,49.9,49.4,29.41,WSW,248,5.0,11.0,98,0.00,,,0.00,WeatherCatV1.02B3,2013-01-28 16:35:00,
2013-01-28 11:40:00,49.9,49.4,29.41,WSW,248,5.0,11.0,98,0.00,,,0.00,WeatherCatV1.02B3,2013-01-28 16:40:00,
2013-01-28 11:45:00,49.9,49.4,29.41,WSW,248,5.0,11.0,98,0.00,,,0.00,WeatherCatV1.02B3,2013-01-28 16:45:00,
2013-01-28 11:50:00,49.9,49.4,29.41,WSW,248,5.0,11.0,98,0.00,,,0.00,WeatherCatV1.02B3,2013-01-28 16:50:00,
2013-01-28 11:55:00,49.9,49.4,29.41,WSW,248,5.0,11.0,98,0.00,,,0.00,WeatherCatV1.02B3,2013-01-28 16:55:00,
2013-01-28 12:00:00,49.9,49.4,29.41,WSW,248,5.0,11.0,98,0.00,,,0.00,WeatherCatV1.02B3,2013-01-28 17:00:00,
2013-01-28 12:05:00,50.0,49.5,29.42,WSW,248,5.0,12.0,98,0.00,,,0.00,WeatherCatV1.02B3,2013-01-28 17:05:00,
2013-01-28 12:10:00,50.0,49.5,29.42,WSW,248,5.0,12.0,98,0.00,,,0.00,WeatherCatV1.02B3,2013-01-28 17:10:00,
2013-01-28 12:15:00,50.0,49.5,29.42,WSW,248,5.0,12.0,98,0.00,,,0.00,WeatherCatV1.02B3,2013-01-28 17:15:00,
2013-01-28 12:20:00,50.0,49.5,29.42,WSW,248,5.0,12.0,98,0.00,,,0.00,WeatherCatV1.02B3,2013-01-28 17:20:00,
2013-01-28 12:25:00,50.0,49.5,29.42,WSW,248,5.0,12.0,98,0.00,,,0.00,WeatherCatV1.02B3,2013-01-28 17:25:00,
2013-01-28 12:30:00,50.0,49.5,29.42,WSW,248,5.0,12.0,98,0.00,,,0.00,WeatherCatV1.02B3,2013-01-28 17:30:00,
2013-01-28 12:35:00,49.6,48.8,29.41,WSW,248,5.0,12.0,97,0.00,,,0.00,WeatherCatV1.02B3,2013-01-28 17:35:00,
2013-01-28 12:40:00,49.6,48.8,29.41,WSW,248,5.0,12.0,97,0.00,,,0.00,WeatherCatV1.02B3,2013-01-28 17:40:00,
2013-01-28 12:45:00,49.6,48.8,29.41,WSW,248,5.0,12.0,97,0.00,,,0.00,WeatherCatV1.02B3,2013-01-28 17:45:00,
2013-01-28 12:50:00,49.6,48.8,29.41,WSW,248,5.0,12.0,97,0.00,,,0.00,WeatherCatV1.02B3,2013-01-28 17:50:00,
2013-01-28 12:55:00,49.6,48.8,29.41,WSW,248,5.0,12.0,97,0.00,,,0.00,WeatherCatV1.02B3,2013-01-28 17:55:00,
2013-01-28 13:00:00,49.6,48.8,29.41,WSW,248,5.0,12.0,97,0.00,,,0.00,WeatherCatV1.02B3,2013-01-28 18:00:00,
2013-01-28 13:05:00,49.3,48.8,29.41,WSW,248,5.0,11.0,98,0.00,,,0.00,WeatherCatV1.02B3,2013-01-28 18:05:00,
2013-01-28 13:10:00,49.3,48.8,29.41,WSW,248,5.0,11.0,98,0.00,,,0.00,WeatherCatV1.02B3,2013-01-28 18:10:00,
2013-01-28 13:15:00,49.3,48.8,29.41,WSW,248,5.0,11.0,98,0.00,,,0.00,WeatherCatV1.02B3,2013-01-28 18:15:00,
2013-01-28 13:20:00,49.3,48.8,29.41,WSW,248,5.0,11.0,98,0.00,,,0.00,WeatherCatV1.02B3,2013-01-28 18:20:00,
2013-01-28 13:25:00,49.3,48.8,29.41,WSW,248,5.0,11.0,98,0.00,,,0.00,WeatherCatV1.02B3,2013-01-28 18:25:00,
2013-01-28 13:30:00,49.3,48.8,29.41,WSW,248,5.0,11.0,98,0.00,,,0.00,WeatherCatV1.02B3,2013-01-28 18:30:00,
2013-01-28 13:35:00,45.2,44.4,29.42,West,270,4.0,10.0,97,0.00,,,0.00,WeatherCatV1.02B3,2013-01-28 18:35:00,
2013-01-28 13:40:00,45.2,44.4,29.42,West,270,4.0,10.0,97,0.00,,,0.00,WeatherCatV1.02B3,2013-01-28 18:40:00,
2013-01-28 13:45:00,45.2,44.4,29.42,West,270,4.0,10.0,97,0.00,,,0.00,WeatherCatV1.02B3,2013-01-28 18:45:00,
2013-01-28 13:50:00,45.2,44.4,29.42,West,270,4.0,10.0,97,0.00,,,0.00,WeatherCatV1.02B3,2013-01-28 18:50:00,
2013-01-28 13:55:00,45.2,44.4,29.42,West,270,4.0,10.0,97,0.00,,,0.00,WeatherCatV1.02B3,2013-01-28 18:55:00,
2013-01-28 14:00:00,43.9,43.4,29.42,West,270,1.0,5.0,98,0.00,,,0.00,WeatherCatV1.02B3,2013-01-28 19:00:00,
2013-01-28 14:05:00,43.9,43.4,29.42,West,270,1.0,5.0,98,0.00,,,0.00,WeatherCatV1.02B3,2013-01-28 19:05:00,
2013-01-28 14:10:00,43.9,43.4,29.42,West,270,1.0,5.0,98,0.00,,,0.00,WeatherCatV1.02B3,2013-01-28 19:10:00,
2013-01-28 14:15:00,43.9,43.4,29.42,West,270,1.0,5.0,98,0.00,,,0.00,WeatherCatV1.02B3,2013-01-28 19:15:00,
2013-01-28 14:20:00,43.9,43.4,29.42,West,270,1.0,5.0,98,0.00,,,0.00,WeatherCatV1.02B3,2013-01-28 19:20:00,
2013-01-28 14:25:00,43.9,43.4,29.42,West,270,1.0,5.0,98,0.00,,,0.00,WeatherCatV1.02B3,2013-01-28 19:25:00,
2013-01-28 14:30:00,43.2,42.7,29.42,West,270,1.0,4.0,98,0.00,,,0.00,WeatherCatV1.02B3,2013-01-28 19:30:00,
2013-01-28 14:35:00,43.2,42.7,29.42,West,270,1.0,4.0,98,0.00,,,0.00,WeatherCatV1.02B3,2013-01-28 19:35:00,
2013-01-28 14:40:00,43.2,42.7,29.42,West,270,1.0,4.0,98,0.00,,,0.00,WeatherCatV1.02B3,2013-01-28 19:40:00,
2013-01-28 14:45:00,43.2,42.7,29.42,West,270,1.0,4.0,98,0.00,,,0.00,WeatherCatV1.02B3,2013-01-28 19:45:00,
2013-01-28 14:50:00,43.2,42.7,29.42,West,270,1.0,4.0,98,0.00,,,0.00,WeatherCatV1.02B3,2013-01-28 19:50:00,
2013-01-28 14:55:00,43.2,42.7,29.42,West,270,1.0,4.0,98,0.00,,,0.00,WeatherCatV1.02B3,2013-01-28 19:55:00,
2013-01-28 15:00:00,42.6,42.1,29.42,West,270,1.0,4.0,98,0.00,,,0.00,WeatherCatV1.02B3,2013-01-28 20:00:00,
2013-01-28 15:05:00,42.6,42.1,29.42,West,270,1.0,4.0,98,0.00,,,0.00,WeatherCatV1.02B3,2013-01-28 20:05:00,
2013-01-28 15:10:00,42.6,42.1,29.42,West,270,1.0,4.0,98,0.00,,,0.00,WeatherCatV1.02B3,2013-01-28 20:10:00,
2013-01-28 15:15:00,42.6,42.1,29.42,West,270,1.0,4.0,98,0.00,,,0.00,WeatherCatV1.02B3,2013-01-28 20:15:00,
2013-01-28 15:20:00,42.6,42.1,29.42,West,270,1.0,4.0,98,0.00,,,0.00,WeatherCatV1.02B3,2013-01-28 20:20:00,
2013-01-28 15:25:00,42.6,42.1,29.42,West,270,1.0,4.0,98,0.00,,,0.00,WeatherCatV1.02B3,2013-01-28 20:25:00,
2013-01-28 15:30:00,42.6,42.1,29.42,West,270,1.0,4.0,98,0.00,,,0.00,WeatherCatV1.02B3,2013-01-28 20:30:00,
2013-01-28 15:35:00,42.2,41.7,29.43,WNW,292,0.0,3.0,98,0.00,,,0.00,WeatherCatV1.02B3,2013-01-28 20:35:00,
2013-01-28 15:40:00,42.2,41.7,29.43,WNW,292,0.0,3.0,98,0.00,,,0.00,WeatherCatV1.02B3,2013-01-28 20:40:00,
2013-01-28 15:45:00,42.2,41.7,29.43,WNW,292,0.0,3.0,98,0.00,,,0.00,WeatherCatV1.02B3,2013-01-28 20:45:00,
2013-01-28 15:50:00,42.2,41.7,29.43,WNW,292,0.0,3.0,98,0.00,,,0.00,WeatherCatV1.02B3,2013-01-28 20:50:00,
2013-01-28 15:55:00,42.2,41.7,29.43,WNW,292,0.0,3.0,98,0.00,,,0.00,WeatherCatV1.02B3,2013-01-28 20:55:00,
2013-01-28 16:00:00,42.2,41.7,29.43,WNW,292,0.0,3.0,98,0.00,,,0.00,WeatherCatV1.02B3,2013-01-28 21:00:00,
2013-01-28 16:05:00,42.0,41.2,29.44,NE,45,0.0,2.0,97,0.00,,,0.00,WeatherCatV1.02B3,2013-01-28 21:05:00,
2013-01-28 16:10:00,42.0,41.2,29.44,NE,45,0.0,2.0,97,0.00,,,0.00,WeatherCatV1.02B3,2013-01-28 21:10:00,
2013-01-28 16:15:00,42.0,41.2,29.44,NE,45,0.0,2.0,97,0.00,,,0.00,WeatherCatV1.02B3,2013-01-28 21:15:00,
2013-01-28 16:20:00,42.0,41.2,29.44,NE,45,0.0,2.0,97,0.00,,,0.00,WeatherCatV1.02B3,2013-01-28 21:20:00,
2013-01-28 16:25:00,42.0,41.2,29.44,NE,45,0.0,2.0,97,0.00,,,0.00,WeatherCatV1.02B3,2013-01-28 21:25:00,
2013-01-28 16:30:00,42.0,41.2,29.44,NE,45,0.0,2.0,97,0.00,,,0.00,WeatherCatV1.02B3,2013-01-28 21:30:00,
2013-01-28 16:35:00,41.7,40.4,29.45,ENE,68,0.0,2.0,95,0.00,,,0.00,WeatherCatV1.02B3,2013-01-28 21:35:00,
2013-01-28 16:40:00,41.7,40.4,29.45,ENE,68,0.0,2.0,95,0.00,,,0.00,WeatherCatV1.02B3,2013-01-28 21:40:00,
2013-01-28 16:45:00,41.7,40.4,29.45,ENE,68,0.0,2.0,95,0.00,,,0.00,WeatherCatV1.02B3,2013-01-28 21:45:00,
2013-01-28 16:50:00,41.7,40.4,29.45,ENE,68,0.0,2.0,95,0.00,,,0.00,WeatherCatV1.02B3,2013-01-28 21:50:00,
2013-01-28 16:55:00,41.7,40.4,29.45,ENE,68,0.0,2.0,95,0.00,,,0.00,WeatherCatV1.02B3,2013-01-28 21:55:00,
2013-01-28 17:00:00,41.7,40.4,29.45,ENE,68,0.0,2.0,95,0.00,,,0.00,WeatherCatV1.02B3,2013-01-28 22:00:00,
2013-01-28 17:05:00,41.0,39.4,29.45,NE,45,0.0,2.0,94,0.00,,,0.00,WeatherCatV1.02B3,2013-01-28 22:05:00,
2013-01-28 17:10:00,41.0,39.4,29.45,NE,45,0.0,2.0,94,0.00,,,0.00,WeatherCatV1.02B3,2013-01-28 22:10:00,
2013-01-28 17:15:00,41.0,39.4,29.45,NE,45,0.0,2.0,94,0.00,,,0.00,WeatherCatV1.02B3,2013-01-28 22:15:00,
2013-01-28 17:20:00,41.0,39.4,29.45,NE,45,0.0,2.0,94,0.00,,,0.00,WeatherCatV1.02B3,2013-01-28 22:20:00,
2013-01-28 17:25:00,41.0,39.4,29.45,NE,45,0.0,2.0,94,0.00,,,0.00,WeatherCatV1.02B3,2013-01-28 22:25:00,
2013-01-28 17:30:00,41.0,39.4,29.45,NE,45,0.0,2.0,94,0.00,,,0.00,WeatherCatV1.02B3,2013-01-28 22:30:00,
2013-01-28 17:35:00,40.2,38.9,29.45,ESE,112,0.0,1.0,95,0.00,,,0.00,WeatherCatV1.02B3,2013-01-28 22:35:00,
2013-01-28 17:40:00,40.2,38.9,29.45,ESE,112,0.0,1.0,95,0.00,,,0.00,WeatherCatV1.02B3,2013-01-28 22:40:00,
2013-01-28 17:45:00,40.2,38.9,29.45,ESE,112,0.0,1.0,95,0.00,,,0.00,WeatherCatV1.02B3,2013-01-28 22:45:00,
2013-01-28 17:50:00,40.2,38.9,29.45,ESE,112,0.0,1.0,95,0.00,,,0.00,WeatherCatV1.02B3,2013-01-28 22:50:00,
2013-01-28 17:55:00,40.2,38.9,29.45,ESE,112,0.0,1.0,95,0.00,,,0.00,WeatherCatV1.02B3,2013-01-28 22:55:00,
2013-01-28 18:00:00,40.2,38.9,29.45,ESE,112,0.0,1.0,95,0.00,,,0.00,WeatherCatV1.02B3,2013-01-28 23:00:00,
2013-01-28 18:05:00,39.5,38.2,29.45,East,90,0.0,1.0,95,0.00,,,0.00,WeatherCatV1.02B3,2013-01-28 23:05:00,
2013-01-28 18:10:00,39.5,38.2,29.45,East,90,0.0,1.0,95,0.00,,,0.00,WeatherCatV1.02B3,2013-01-28 23:10:00,
2013-01-28 18:15:00,39.5,38.2,29.45,East,90,0.0,1.0,95,0.00,,,0.00,WeatherCatV1.02B3,2013-01-28 23:15:00,
2013-01-28 18:20:00,39.5,38.2,29.45,East,90,0.0,1.0,95,0.00,,,0.00,WeatherCatV1.02B3,2013-01-28 23:20:00,
2013-01-28 18:25:00,39.5,38.2,29.45,East,90,0.0,1.0,95,0.00,,,0.00,WeatherCatV1.02B3,2013-01-28 23:25:00,
2013-01-28 18:30:00,38.9,37.8,29.47,East,90,0.0,1.0,96,0.00,,,0.00,WeatherCatV1.02B3,2013-01-28 23:30:00,
2013-01-28 18:35:00,38.9,37.8,29.47,East,90,0.0,1.0,96,0.00,,,0.00,WeatherCatV1.02B3,2013-01-28 23:35:00,
2013-01-28 18:40:00,38.9,37.8,29.47,East,90,0.0,1.0,96,0.00,,,0.00,WeatherCatV1.02B3,2013-01-28 23:40:00,
2013-01-28 18:45:00,38.9,37.8,29.47,East,90,0.0,1.0,96,0.00,,,0.00,WeatherCatV1.02B3,2013-01-28 23:45:00,
2013-01-28 18:50:00,38.9,37.8,29.47,East,90,0.0,1.0,96,0.00,,,0.00,WeatherCatV1.02B3,2013-01-28 23:50:00,
2013-01-28 18:55:00,38.9,37.8,29.47,East,90,0.0,1.0,96,0.00,,,0.00,WeatherCatV1.02B3,2013-01-28 23:55:00,
2013-01-28 19:00:00,38.2,37.2,29.47,East,90,0.0,1.0,96,0.00,,,0.00,WeatherCatV1.02B3,2013-01-29 00:00:00,
2013-01-28 19:05:00,38.2,37.2,29.47,East,90,0.0,1.0,96,0.00,,,0.00,WeatherCatV1.02B3,2013-01-29 00:05:00,
2013-01-28 19:10:00,38.2,37.2,29.47,East,90,0.0,1.0,96,0.00,,,0.00,WeatherCatV1.02B3,2013-01-29 00:10:00,
2013-01-28 19:15:00,38.2,37.2,29.47,East,90,0.0,1.0,96,0.00,,,0.00,WeatherCatV1.02B3,2013-01-29 00:15:00,
2013-01-28 19:20:00,38.2,37.2,29.47,East,90,0.0,1.0,96,0.00,,,0.00,WeatherCatV1.02B3,2013-01-29 00:20:00,
2013-01-28 19:25:00,38.2,37.2,29.47,East,90,0.0,1.0,96,0.00,,,0.00,WeatherCatV1.02B3,2013-01-29 00:25:00,
2013-01-28 19:30:00,38.5,37.7,29.48,East,90,0.0,1.0,97,0.00,,,0.00,WeatherCatV1.02B3,2013-01-29 00:30:00,
2013-01-28 19:35:00,38.5,37.7,29.48,East,90,0.0,1.0,97,0.00,,,0.00,WeatherCatV1.02B3,2013-01-29 00:35:00,
2013-01-28 19:40:00,38.5,37.7,29.48,East,90,0.0,1.0,97,0.00,,,0.00,WeatherCatV1.02B3,2013-01-29 00:40:00,
2013-01-28 19:45:00,38.5,37.7,29.48,East,90,0.0,1.0,97,0.00,,,0.00,WeatherCatV1.02B3,2013-01-29 00:45:00,
2013-01-28 19:50:00,38.2,37.4,29.48,ENE,58,1.0,0.0,97,0.00,,,0.00,WeatherCatV1.02B3,2013-01-29 00:50:00,
2013-01-28 19:55:00,37.9,37.1,29.48,ENE,58,0.0,1.0,97,0.00,,,0.00,WeatherCatV1.02B3,2013-01-29 00:55:00,
2013-01-28 20:00:00,37.8,37.0,29.47,ENE,59,0.0,0.0,97,0.00,,,0.00,WeatherCatV1.02B3,2013-01-29 01:00:00,
2013-01-28 20:05:00,37.7,36.9,29.48,ENE,59,0.0,1.0,97,0.00,,,0.00,WeatherCatV1.02B3,2013-01-29 01:05:00,
2013-01-28 20:10:00,37.7,36.9,29.47,ENE,59,0.0,0.0,97,0.00,,,0.00,WeatherCatV1.02B3,2013-01-29 01:10:00,
2013-01-28 20:15:00,37.6,36.8,29.47,ENE,61,0.0,1.0,97,0.00,,,0.00,WeatherCatV1.02B3,2013-01-29 01:15:00,
2013-01-28 20:20:00,37.7,36.9,29.48,ENE,59,0.0,0.0,97,0.00,,,0.00,WeatherCatV1.02B3,2013-01-29 01:20:00,
2013-01-28 20:25:00,37.7,37.2,29.47,ENE,65,0.0,1.0,98,0.00,,,0.00,WeatherCatV1.02B3,2013-01-29 01:25:00,
2013-01-28 20:30:00,37.9,37.4,29.47,ENE,66,1.0,2.0,98,0.00,,,0.00,WeatherCatV1.02B3,2013-01-29 01:30:00,
2013-01-28 20:35:00,37.9,37.4,29.47,ENE,75,1.0,2.0,98,0.00,,,0.00,WeatherCatV1.02B3,2013-01-29 01:35:00,
2013-01-28 20:49:00,38.0,37.5,29.46,NE,55,1.0,2.0,98,0.00,,,0.00,WeatherCatV1.02B3,2013-01-29 01:49:00,
2013-01-28 20:54:00,38.1,37.6,29.47,ESE,115,0.0,0.0,98,0.00,,,0.33,WeatherCatV1.02B3,2013-01-29 01:54:00,
2013-01-28 20:59:00,38.1,37.6,29.46,NE,49,2.0,3.0,98,0.00,,,0.33,WeatherCatV1.02B3,2013-01-29 01:59:00,
2013-01-28 21:04:00,38.2,37.7,29.46,ESE,106,1.0,2.0,98,0.00,,,0.33,WeatherCatV1.02B3,2013-01-29 02:04:00,
2013-01-28 21:09:00,38.1,37.6,29.46,East,90,0.0,1.0,98,0.00,,,0.33,WeatherCatV1.02B3,2013-01-29 02:09:00,
2013-01-28 21:14:00,38.0,37.5,29.47,ESE,114,0.0,0.0,98,0.00,,,0.33,WeatherCatV1.02B3,2013-01-29 02:14:00,
2013-01-28 21:19:00,38.0,37.5,29.47,ESE,111,0.0,1.0,98,0.00,,,0.33,WeatherCatV1.02B3,2013-01-29 02:19:00,
2013-01-28 21:24:00,38.0,37.5,29.46,ENE,70,0.0,2.0,98,0.00,,,0.33,WeatherCatV1.02B3,2013-01-29 02:24:00,
2013-01-28 21:29:00,38.0,37.5,29.46,ENE,70,0.0,1.0,98,0.00,,,0.33,WeatherCatV1.02B3,2013-01-29 02:29:00,
2013-01-28 21:34:00,38.0,37.5,29.46,ENE,60,1.0,2.0,98,0.00,,,0.33,WeatherCatV1.02B3,2013-01-29 02:34:00,
2013-01-28 21:39:00,38.0,37.5,29.46,ENE,57,0.0,1.0,98,0.00,,,0.33,WeatherCatV1.02B3,2013-01-29 02:39:00,
2013-01-28 21:44:00,38.0,37.5,29.45,ESE,108,1.0,2.0,98,0.00,,,0.33,WeatherCatV1.02B3,2013-01-29 02:44:00,
2013-01-28 21:49:00,38.0,37.5,29.45,NE,41,4.0,5.0,98,0.00,,,0.33,WeatherCatV1.02B3,2013-01-29 02:49:00,
2013-01-28 21:54:00,37.9,37.4,29.46,East,101,0.0,1.0,98,0.00,,,0.33,WeatherCatV1.02B3,2013-01-29 02:54:00,
2013-01-28 21:59:00,37.8,37.3,29.46,East,99,0.0,1.0,98,0.00,,,0.33,WeatherCatV1.02B3,2013-01-29 02:59:00,
2013-01-28 22:04:00,37.8,37.3,29.45,ESE,106,1.0,1.0,98,0.00,,,0.33,WeatherCatV1.02B3,2013-01-29 03:04:00,
2013-01-28 22:09:00,37.9,37.4,29.46,ESE,105,0.0,1.0,98,0.00,,,0.33,WeatherCatV1.02B3,2013-01-29 03:09:00,
2013-01-28 22:14:00,37.9,37.4,29.45,East,92,0.0,1.0,98,0.00,,,0.33,WeatherCatV1.02B3,2013-01-29 03:14:00,
2013-01-28 22:19:00,37.9,37.4,29.44,NE,41,2.0,4.0,98,0.00,,,0.33,WeatherCatV1.02B3,2013-01-29 03:19:00,
2013-01-28 22:24:00,38.0,37.5,29.45,ENE,70,0.0,1.0,98,0.00,,,0.33,WeatherCatV1.02B3,2013-01-29 03:24:00,
2013-01-28 22:29:00,37.9,37.4,29.45,ESE,107,0.0,1.0,98,0.00,,,0.33,WeatherCatV1.02B3,2013-01-29 03:29:00,
2013-01-28 22:34:00,37.8,37.3,29.45,ESE,102,0.0,1.0,98,0.00,,,0.33,WeatherCatV1.02B3,2013-01-29 03:34:00,
2013-01-28 22:39:00,37.9,37.4,29.45,East,98,0.0,1.0,98,0.00,,,0.33,WeatherCatV1.02B3,2013-01-29 03:39:00,
2013-01-28 22:44:00,38.0,37.5,29.45,East,94,1.0,2.0,98,0.00,,,0.33,WeatherCatV1.02B3,2013-01-29 03:44:00,
2013-01-28 22:49:00,38.0,37.5,29.45,East,95,0.0,4.0,98,0.00,,,0.33,WeatherCatV1.02B3,2013-01-29 03:49:00,
2013-01-28 22:54:00,38.1,37.8,29.44,ENE,77,0.0,2.0,99,0.00,,,0.33,WeatherCatV1.02B3,2013-01-29 03:54:00,
2013-01-28 22:59:00,38.1,37.8,29.45,North,11,0.0,2.0,99,0.00,,,0.33,WeatherCatV1.02B3,2013-01-29 03:59:00,
2013-01-28 23:04:00,38.1,37.8,29.44,ENE,70,1.0,2.0,99,0.00,,,0.33,WeatherCatV1.02B3,2013-01-29 04:04:00,
2013-01-28 23:09:00,38.1,37.8,29.44,East,88,1.0,2.0,99,0.00,,,0.33,WeatherCatV1.02B3,2013-01-29 04:09:00,
2013-01-28 23:14:00,38.1,37.8,29.44,East,86,1.0,2.0,99,0.00,,,0.33,WeatherCatV1.02B3,2013-01-29 04:14:00,
2013-01-28 23:19:00,38.1,37.8,29.43,NE,52,2.0,2.0,99,0.00,,,0.33,WeatherCatV1.02B3,2013-01-29 04:19:00,
2013-01-28 23:24:00,38.1,37.8,29.43,NE,39,1.0,1.0,99,0.00,,,0.33,WeatherCatV1.02B3,2013-01-29 04:24:00,
2013-01-28 23:29:00,38.1,37.8,29.43,ENE,59,1.0,3.0,99,0.00,,,0.33,WeatherCatV1.02B3,2013-01-29 04:29:00,
2013-01-28 23:34:00,38.2,37.9,29.42,East,79,0.0,1.0,99,0.00,,,0.33,WeatherCatV1.02B3,2013-01-29 04:34:00,
2013-01-28 23:39:00,38.3,38.0,29.42,North,353,0.0,1.0,99,0.00,,,0.33,WeatherCatV1.02B3,2013-01-29 04:39:00,
2013-01-28 23:44:00,38.3,38.0,29.42,SE,136,0.0,2.0,99,0.00,,,0.33,WeatherCatV1.02B3,2013-01-29 04:44:00,
2013-01-28 23:49:00,38.4,38.1,29.42,ENE,75,1.0,1.0,99,0.00,,,0.33,WeatherCatV1.02B3,2013-01-29 04:49:00,
2013-01-28 23:54:00,38.4,38.1,29.42,ESE,107,0.0,1.0,99,0.00,,,0.33,WeatherCatV1.02B3,2013-01-29 04:54:00,
2013-01-28 23:59:00,38.5,38.2,29.42,ENE,61,1.0,2.0,99,0.00,,,0.33,WeatherCatV1.02B3,2013-01-29 04:59:00,